sensor_id;sensor_type;location;lat;lon;timestamp;P1;durP1;ratioP1;P2;durP2;ratioP2
6093;SDS011;19964;42.060;24.700;2023-07-31T00:00:22;5.93;;;5.43;;
6093;SDS011;19964;42.060;24.700;2023-07-31T00:02:49;6.13;;;5.53;;
6093;SDS011;19964;42.060;24.700;2023-07-31T00:05:17;6.35;;;5.80;;
6093;SDS011;19964;42.060;24.700;2023-07-31T00:07:44;5.50;;;5.00;;
6093;SDS011;19964;42.060;24.700;2023-07-31T00:10:12;7.05;;;5.50;;
6093;SDS011;19964;42.060;24.700;2023-07-31T00:12:40;7.05;;;5.18;;
6093;SDS011;19964;42.060;24.700;2023-07-31T00:15:09;7.28;;;5.40;;
6093;SDS011;19964;42.060;24.700;2023-07-31T00:17:36;5.38;;;4.80;;
6093;SDS011;19964;42.060;24.700;2023-07-31T00:20:04;5.45;;;5.05;;
6093;SDS011;19964;42.060;24.700;2023-07-31T00:22:31;7.72;;;5.20;;
6093;SDS011;19964;42.060;24.700;2023-07-31T00:24:58;5.97;;;4.90;;
6093;SDS011;19964;42.060;24.700;2023-07-31T00:27:26;5.55;;;5.05;;
6093;SDS011;19964;42.060;24.700;2023-07-31T00:29:53;5.15;;;4.75;;
6093;SDS011;19964;42.060;24.700;2023-07-31T00:32:20;6.68;;;5.53;;
6093;SDS011;19964;42.060;24.700;2023-07-31T00:34:47;5.75;;;4.80;;
6093;SDS011;19964;42.060;24.700;2023-07-31T00:37:14;5.15;;;4.65;;
6093;SDS011;19964;42.060;24.700;2023-07-31T00:39:41;5.05;;;4.55;;
6093;SDS011;19964;42.060;24.700;2023-07-31T00:42:08;5.32;;;4.82;;
6093;SDS011;19964;42.060;24.700;2023-07-31T00:44:36;4.50;;;4.20;;
6093;SDS011;19964;42.060;24.700;2023-07-31T00:47:03;5.05;;;4.65;;
6093;SDS011;19964;42.060;24.700;2023-07-31T00:49:30;5.72;;;5.05;;
6093;SDS011;19964;42.060;24.700;2023-07-31T00:51:57;5.13;;;4.10;;
6093;SDS011;19964;42.060;24.700;2023-07-31T00:54:25;4.90;;;4.50;;
6093;SDS011;19964;42.060;24.700;2023-07-31T00:56:52;5.70;;;4.15;;
6093;SDS011;19964;42.060;24.700;2023-07-31T00:59:21;4.93;;;4.23;;
6093;SDS011;19964;42.060;24.700;2023-07-31T01:01:49;5.25;;;4.35;;
6093;SDS011;19964;42.060;24.700;2023-07-31T01:04:16;4.47;;;3.80;;
6093;SDS011;19964;42.060;24.700;2023-07-31T01:06:44;4.10;;;3.75;;
6093;SDS011;19964;42.060;24.700;2023-07-31T01:09:20;5.50;;;3.83;;
6093;SDS011;19964;42.060;24.700;2023-07-31T01:11:56;5.35;;;4.35;;
6093;SDS011;19964;42.060;24.700;2023-07-31T01:14:24;7.72;;;4.28;;
6093;SDS011;19964;42.060;24.700;2023-07-31T01:16:54;5.97;;;3.95;;
6093;SDS011;19964;42.060;24.700;2023-07-31T01:19:21;6.88;;;3.60;;
6093;SDS011;19964;42.060;24.700;2023-07-31T01:21:57;11.45;;;3.83;;
6093;SDS011;19964;42.060;24.700;2023-07-31T01:24:40;7.00;;;3.47;;
6093;SDS011;19964;42.060;24.700;2023-07-31T01:27:17;4.07;;;3.55;;
6093;SDS011;19964;42.060;24.700;2023-07-31T01:29:51;4.25;;;3.40;;
6093;SDS011;19964;42.060;24.700;2023-07-31T01:32:22;4.00;;;3.60;;
6093;SDS011;19964;42.060;24.700;2023-07-31T01:34:50;3.55;;;3.25;;
6093;SDS011;19964;42.060;24.700;2023-07-31T01:37:19;3.78;;;3.30;;
6093;SDS011;19964;42.060;24.700;2023-07-31T01:39:46;4.70;;;3.05;;
6093;SDS011;19964;42.060;24.700;2023-07-31T01:42:14;4.50;;;3.33;;
6093;SDS011;19964;42.060;24.700;2023-07-31T01:44:42;4.65;;;3.67;;
6093;SDS011;19964;42.060;24.700;2023-07-31T01:47:09;5.40;;;4.10;;
6093;SDS011;19964;42.060;24.700;2023-07-31T01:49:36;3.40;;;3.20;;
6093;SDS011;19964;42.060;24.700;2023-07-31T01:52:12;3.60;;;3.30;;
6093;SDS011;19964;42.060;24.700;2023-07-31T01:54:39;3.75;;;3.03;;
6093;SDS011;19964;42.060;24.700;2023-07-31T01:57:06;5.72;;;3.20;;
6093;SDS011;19964;42.060;24.700;2023-07-31T01:59:33;4.35;;;3.10;;
6093;SDS011;19964;42.060;24.700;2023-07-31T02:02:01;4.72;;;3.10;;
6093;SDS011;19964;42.060;24.700;2023-07-31T02:04:28;3.23;;;3.03;;
6093;SDS011;19964;42.060;24.700;2023-07-31T02:06:55;3.60;;;3.17;;
6093;SDS011;19964;42.060;24.700;2023-07-31T02:09:22;3.10;;;2.80;;
6093;SDS011;19964;42.060;24.700;2023-07-31T02:11:49;3.20;;;3.00;;
6093;SDS011;19964;42.060;24.700;2023-07-31T02:14:16;3.20;;;3.00;;
6093;SDS011;19964;42.060;24.700;2023-07-31T02:16:43;3.97;;;2.90;;
6093;SDS011;19964;42.060;24.700;2023-07-31T02:19:11;4.85;;;3.38;;
6093;SDS011;19964;42.060;24.700;2023-07-31T02:21:38;3.85;;;3.38;;
6093;SDS011;19964;42.060;24.700;2023-07-31T02:24:05;4.05;;;3.72;;
6093;SDS011;19964;42.060;24.700;2023-07-31T02:26:32;4.10;;;3.28;;
6093;SDS011;19964;42.060;24.700;2023-07-31T02:28:58;3.50;;;3.30;;
6093;SDS011;19964;42.060;24.700;2023-07-31T02:31:25;4.97;;;4.00;;
6093;SDS011;19964;42.060;24.700;2023-07-31T02:33:52;4.80;;;4.40;;
6093;SDS011;19964;42.060;24.700;2023-07-31T02:36:20;4.40;;;4.10;;
6093;SDS011;19964;42.060;24.700;2023-07-31T02:38:47;4.63;;;4.32;;
6093;SDS011;19964;42.060;24.700;2023-07-31T02:41:14;4.80;;;4.25;;
6093;SDS011;19964;42.060;24.700;2023-07-31T02:43:41;6.65;;;4.68;;
6093;SDS011;19964;42.060;24.700;2023-07-31T02:46:08;5.13;;;4.75;;
6093;SDS011;19964;42.060;24.700;2023-07-31T02:48:36;4.75;;;4.10;;
6093;SDS011;19964;42.060;24.700;2023-07-31T02:51:02;5.20;;;4.80;;
6093;SDS011;19964;42.060;24.700;2023-07-31T02:53:31;4.70;;;3.80;;
6093;SDS011;19964;42.060;24.700;2023-07-31T02:55:58;5.75;;;4.32;;
6093;SDS011;19964;42.060;24.700;2023-07-31T02:58:25;5.20;;;4.72;;
6093;SDS011;19964;42.060;24.700;2023-07-31T03:00:51;6.72;;;4.50;;
6093;SDS011;19964;42.060;24.700;2023-07-31T03:03:19;5.05;;;4.65;;
6093;SDS011;19964;42.060;24.700;2023-07-31T03:05:46;5.32;;;4.93;;
6093;SDS011;19964;42.060;24.700;2023-07-31T03:08:12;5.10;;;4.43;;
6093;SDS011;19964;42.060;24.700;2023-07-31T03:10:41;4.72;;;4.43;;
6093;SDS011;19964;42.060;24.700;2023-07-31T03:13:08;4.63;;;4.32;;
6093;SDS011;19964;42.060;24.700;2023-07-31T03:15:35;5.47;;;4.70;;
6093;SDS011;19964;42.060;24.700;2023-07-31T03:18:01;5.13;;;4.75;;
6093;SDS011;19964;42.060;24.700;2023-07-31T03:20:28;5.70;;;5.30;;
6093;SDS011;19964;42.060;24.700;2023-07-31T03:22:55;5.07;;;4.68;;
6093;SDS011;19964;42.060;24.700;2023-07-31T03:25:22;6.28;;;5.32;;
6093;SDS011;19964;42.060;24.700;2023-07-31T03:27:51;7.85;;;5.00;;
6093;SDS011;19964;42.060;24.700;2023-07-31T03:30:18;6.35;;;5.53;;
6093;SDS011;19964;42.060;24.700;2023-07-31T03:32:45;6.28;;;5.78;;
6093;SDS011;19964;42.060;24.700;2023-07-31T03:35:12;6.47;;;5.97;;
6093;SDS011;19964;42.060;24.700;2023-07-31T03:37:39;6.50;;;6.03;;
6093;SDS011;19964;42.060;24.700;2023-07-31T03:40:06;6.60;;;6.13;;
6093;SDS011;19964;42.060;24.700;2023-07-31T03:42:33;6.85;;;6.35;;
6093;SDS011;19964;42.060;24.700;2023-07-31T03:45:02;7.93;;;7.13;;
6093;SDS011;19964;42.060;24.700;2023-07-31T03:47:29;7.65;;;7.00;;
6093;SDS011;19964;42.060;24.700;2023-07-31T03:49:56;7.38;;;6.40;;
6093;SDS011;19964;42.060;24.700;2023-07-31T03:52:23;7.05;;;6.40;;
6093;SDS011;19964;42.060;24.700;2023-07-31T03:54:50;7.35;;;6.75;;
6093;SDS011;19964;42.060;24.700;2023-07-31T03:57:17;6.88;;;6.32;;
6093;SDS011;19964;42.060;24.700;2023-07-31T03:59:44;7.25;;;6.05;;
6093;SDS011;19964;42.060;24.700;2023-07-31T04:02:12;6.70;;;6.03;;
6093;SDS011;19964;42.060;24.700;2023-07-31T04:04:39;6.60;;;5.97;;
6093;SDS011;19964;42.060;24.700;2023-07-31T04:07:06;7.63;;;6.25;;
6093;SDS011;19964;42.060;24.700;2023-07-31T04:09:33;6.30;;;5.80;;
6093;SDS011;19964;42.060;24.700;2023-07-31T04:12:00;6.90;;;6.20;;
6093;SDS011;19964;42.060;24.700;2023-07-31T04:14:27;6.73;;;6.33;;
6093;SDS011;19964;42.060;24.700;2023-07-31T04:16:54;6.80;;;6.20;;
6093;SDS011;19964;42.060;24.700;2023-07-31T04:19:22;6.10;;;5.70;;
6093;SDS011;19964;42.060;24.700;2023-07-31T04:21:49;6.20;;;5.80;;
6093;SDS011;19964;42.060;24.700;2023-07-31T04:24:16;6.60;;;6.00;;
6093;SDS011;19964;42.060;24.700;2023-07-31T04:26:49;6.63;;;6.03;;
6093;SDS011;19964;42.060;24.700;2023-07-31T04:29:16;7.07;;;6.57;;
6093;SDS011;19964;42.060;24.700;2023-07-31T04:31:43;6.17;;;5.77;;
6093;SDS011;19964;42.060;24.700;2023-07-31T04:34:10;7.87;;;6.00;;
6093;SDS011;19964;42.060;24.700;2023-07-31T04:36:39;7.07;;;6.47;;
6093;SDS011;19964;42.060;24.700;2023-07-31T04:39:06;6.80;;;5.97;;
6093;SDS011;19964;42.060;24.700;2023-07-31T04:41:33;6.33;;;5.63;;
6093;SDS011;19964;42.060;24.700;2023-07-31T04:43:59;6.17;;;5.77;;
6093;SDS011;19964;42.060;24.700;2023-07-31T04:46:28;6.20;;;5.67;;
6093;SDS011;19964;42.060;24.700;2023-07-31T04:48:55;6.00;;;5.50;;
6093;SDS011;19964;42.060;24.700;2023-07-31T04:51:22;6.00;;;5.60;;
6093;SDS011;19964;42.060;24.700;2023-07-31T04:53:51;6.17;;;5.77;;
6093;SDS011;19964;42.060;24.700;2023-07-31T04:56:18;6.27;;;5.77;;
6093;SDS011;19964;42.060;24.700;2023-07-31T04:58:45;6.10;;;5.70;;
6093;SDS011;19964;42.060;24.700;2023-07-31T05:01:12;5.97;;;5.60;;
6093;SDS011;19964;42.060;24.700;2023-07-31T05:03:39;11.13;;;5.97;;
6093;SDS011;19964;42.060;24.700;2023-07-31T05:06:06;6.20;;;5.60;;
6093;SDS011;19964;42.060;24.700;2023-07-31T05:08:33;5.70;;;5.20;;
6093;SDS011;19964;42.060;24.700;2023-07-31T05:11:01;6.17;;;5.77;;
6093;SDS011;19964;42.060;24.700;2023-07-31T05:13:29;6.03;;;5.63;;
6093;SDS011;19964;42.060;24.700;2023-07-31T05:15:56;6.07;;;5.37;;
6093;SDS011;19964;42.060;24.700;2023-07-31T05:18:23;5.97;;;5.40;;
6093;SDS011;19964;42.060;24.700;2023-07-31T05:20:50;5.40;;;5.10;;
6093;SDS011;19964;42.060;24.700;2023-07-31T05:23:16;6.30;;;5.68;;
6093;SDS011;19964;42.060;24.700;2023-07-31T05:25:43;5.45;;;4.97;;
6093;SDS011;19964;42.060;24.700;2023-07-31T05:28:12;5.35;;;5.03;;
6093;SDS011;19964;42.060;24.700;2023-07-31T05:30:39;5.28;;;4.97;;
6093;SDS011;19964;42.060;24.700;2023-07-31T05:33:06;5.50;;;5.10;;
6093;SDS011;19964;42.060;24.700;2023-07-31T05:35:33;6.40;;;5.97;;
6093;SDS011;19964;42.060;24.700;2023-07-31T05:38:00;7.70;;;7.10;;
6093;SDS011;19964;42.060;24.700;2023-07-31T05:40:27;7.38;;;6.88;;
6093;SDS011;19964;42.060;24.700;2023-07-31T05:42:54;7.60;;;6.95;;
6093;SDS011;19964;42.060;24.700;2023-07-31T05:45:22;7.78;;;7.18;;
6093;SDS011;19964;42.060;24.700;2023-07-31T05:47:49;7.78;;;7.07;;
6093;SDS011;19964;42.060;24.700;2023-07-31T05:50:16;7.88;;;7.28;;
6093;SDS011;19964;42.060;24.700;2023-07-31T05:52:43;8.20;;;7.50;;
6093;SDS011;19964;42.060;24.700;2023-07-31T05:55:10;8.40;;;7.72;;
6093;SDS011;19964;42.060;24.700;2023-07-31T05:57:37;7.93;;;7.35;;
6093;SDS011;19964;42.060;24.700;2023-07-31T06:00:04;7.97;;;7.43;;
6093;SDS011;19964;42.060;24.700;2023-07-31T06:02:33;9.73;;;9.02;;
6093;SDS011;19964;42.060;24.700;2023-07-31T06:05:02;10.05;;;9.05;;
6093;SDS011;19964;42.060;24.700;2023-07-31T06:07:29;9.45;;;8.75;;
6093;SDS011;19964;42.060;24.700;2023-07-31T06:09:56;9.93;;;9.05;;
6093;SDS011;19964;42.060;24.700;2023-07-31T06:12:28;9.05;;;8.35;;
6093;SDS011;19964;42.060;24.700;2023-07-31T06:14:55;9.57;;;8.70;;
6093;SDS011;19964;42.060;24.700;2023-07-31T06:17:22;9.32;;;8.65;;
6093;SDS011;19964;42.060;24.700;2023-07-31T06:19:50;9.05;;;8.30;;
6093;SDS011;19964;42.060;24.700;2023-07-31T06:22:18;9.43;;;8.73;;
6093;SDS011;19964;42.060;24.700;2023-07-31T06:24:45;9.35;;;8.55;;
6093;SDS011;19964;42.060;24.700;2023-07-31T06:27:12;8.88;;;8.25;;
6093;SDS011;19964;42.060;24.700;2023-07-31T06:29:39;8.75;;;8.00;;
6093;SDS011;19964;42.060;24.700;2023-07-31T06:32:07;9.45;;;8.65;;
6093;SDS011;19964;42.060;24.700;2023-07-31T06:34:34;8.35;;;7.78;;
6093;SDS011;19964;42.060;24.700;2023-07-31T06:37:02;9.38;;;8.65;;
6093;SDS011;19964;42.060;24.700;2023-07-31T06:39:29;9.43;;;8.63;;
6093;SDS011;19964;42.060;24.700;2023-07-31T06:41:56;9.60;;;8.88;;
6093;SDS011;19964;42.060;24.700;2023-07-31T06:44:23;10.60;;;9.70;;
6093;SDS011;19964;42.060;24.700;2023-07-31T06:46:50;10.90;;;10.10;;
6093;SDS011;19964;42.060;24.700;2023-07-31T06:49:17;10.35;;;9.65;;
6093;SDS011;19964;42.060;24.700;2023-07-31T06:51:44;11.15;;;10.25;;
6093;SDS011;19964;42.060;24.700;2023-07-31T06:54:12;10.20;;;9.50;;
6093;SDS011;19964;42.060;24.700;2023-07-31T06:56:39;10.98;;;9.95;;
6093;SDS011;19964;42.060;24.700;2023-07-31T06:59:06;10.60;;;9.70;;
6093;SDS011;19964;42.060;24.700;2023-07-31T07:01:33;10.95;;;10.10;;
6093;SDS011;19964;42.060;24.700;2023-07-31T07:04:00;11.48;;;10.68;;
6093;SDS011;19964;42.060;24.700;2023-07-31T07:06:27;12.13;;;11.23;;
6093;SDS011;19964;42.060;24.700;2023-07-31T07:08:54;11.85;;;10.75;;
6093;SDS011;19964;42.060;24.700;2023-07-31T07:11:22;11.23;;;10.35;;
6093;SDS011;19964;42.060;24.700;2023-07-31T07:13:49;10.73;;;9.98;;
6093;SDS011;19964;42.060;24.700;2023-07-31T07:16:16;11.38;;;10.40;;
6093;SDS011;19964;42.060;24.700;2023-07-31T07:18:43;11.18;;;10.38;;
6093;SDS011;19964;42.060;24.700;2023-07-31T07:21:10;10.95;;;10.05;;
6093;SDS011;19964;42.060;24.700;2023-07-31T07:23:40;12.05;;;11.15;;
6093;SDS011;19964;42.060;24.700;2023-07-31T07:26:07;12.23;;;11.32;;
6093;SDS011;19964;42.060;24.700;2023-07-31T07:28:36;12.23;;;11.18;;
6093;SDS011;19964;42.060;24.700;2023-07-31T07:31:03;12.95;;;11.85;;
6093;SDS011;19964;42.060;24.700;2023-07-31T07:33:31;12.65;;;11.55;;
6093;SDS011;19964;42.060;24.700;2023-07-31T07:36:00;13.60;;;12.45;;
6093;SDS011;19964;42.060;24.700;2023-07-31T07:38:27;13.35;;;12.25;;
6093;SDS011;19964;42.060;24.700;2023-07-31T07:40:54;14.43;;;13.02;;
6093;SDS011;19964;42.060;24.700;2023-07-31T07:43:20;13.98;;;12.88;;
6093;SDS011;19964;42.060;24.700;2023-07-31T07:45:49;13.88;;;12.57;;
6093;SDS011;19964;42.060;24.700;2023-07-31T07:48:16;14.50;;;13.32;;
6093;SDS011;19964;42.060;24.700;2023-07-31T07:50:43;15.07;;;13.77;;
6093;SDS011;19964;42.060;24.700;2023-07-31T07:53:10;14.93;;;13.73;;
6093;SDS011;19964;42.060;24.700;2023-07-31T07:55:37;16.05;;;14.63;;
6093;SDS011;19964;42.060;24.700;2023-07-31T07:58:04;15.52;;;14.15;;
6093;SDS011;19964;42.060;24.700;2023-07-31T08:00:30;17.08;;;15.30;;
6093;SDS011;19964;42.060;24.700;2023-07-31T08:02:59;16.92;;;15.43;;
6093;SDS011;19964;42.060;24.700;2023-07-31T08:05:26;16.63;;;15.23;;
6093;SDS011;19964;42.060;24.700;2023-07-31T08:07:52;17.73;;;16.02;;
6093;SDS011;19964;42.060;24.700;2023-07-31T08:10:19;19.15;;;17.35;;
6093;SDS011;19964;42.060;24.700;2023-07-31T08:12:46;19.38;;;17.33;;
6093;SDS011;19964;42.060;24.700;2023-07-31T08:15:13;17.95;;;16.40;;
6093;SDS011;19964;42.060;24.700;2023-07-31T08:17:40;18.40;;;16.67;;
6093;SDS011;19964;42.060;24.700;2023-07-31T08:20:09;19.73;;;17.92;;
6093;SDS011;19964;42.060;24.700;2023-07-31T08:22:37;18.25;;;16.33;;
6093;SDS011;19964;42.060;24.700;2023-07-31T08:25:04;18.90;;;17.05;;
6093;SDS011;19964;42.060;24.700;2023-07-31T08:27:32;17.98;;;16.38;;
6093;SDS011;19964;42.060;24.700;2023-07-31T08:29:59;16.92;;;15.35;;
6093;SDS011;19964;42.060;24.700;2023-07-31T08:32:26;15.52;;;14.23;;
6093;SDS011;19964;42.060;24.700;2023-07-31T08:34:53;15.90;;;14.57;;
6093;SDS011;19964;42.060;24.700;2023-07-31T08:37:21;16.73;;;15.30;;
6093;SDS011;19964;42.060;24.700;2023-07-31T08:39:48;16.20;;;14.68;;
6093;SDS011;19964;42.060;24.700;2023-07-31T08:42:15;17.20;;;15.70;;
6093;SDS011;19964;42.060;24.700;2023-07-31T08:44:42;16.83;;;15.25;;
6093;SDS011;19964;42.060;24.700;2023-07-31T08:47:10;16.52;;;15.13;;
6093;SDS011;19964;42.060;24.700;2023-07-31T08:49:38;17.40;;;15.75;;
6093;SDS011;19964;42.060;24.700;2023-07-31T08:52:07;17.55;;;15.95;;
6093;SDS011;19964;42.060;24.700;2023-07-31T08:54:35;16.58;;;15.07;;
6093;SDS011;19964;42.060;24.700;2023-07-31T08:57:02;18.23;;;16.33;;
6093;SDS011;19964;42.060;24.700;2023-07-31T08:59:31;16.63;;;15.13;;
6093;SDS011;19964;42.060;24.700;2023-07-31T09:02:01;16.73;;;15.20;;
6093;SDS011;19964;42.060;24.700;2023-07-31T09:04:32;16.40;;;14.85;;
6093;SDS011;19964;42.060;24.700;2023-07-31T09:07:00;18.05;;;16.40;;
6093;SDS011;19964;42.060;24.700;2023-07-31T09:09:29;18.20;;;16.45;;
6093;SDS011;19964;42.060;24.700;2023-07-31T09:11:58;17.13;;;15.63;;
6093;SDS011;19964;42.060;24.700;2023-07-31T09:14:25;17.20;;;15.70;;
6093;SDS011;19964;42.060;24.700;2023-07-31T09:16:53;17.90;;;16.25;;
6093;SDS011;19964;42.060;24.700;2023-07-31T09:19:27;18.20;;;16.50;;
6093;SDS011;19964;42.060;24.700;2023-07-31T09:21:56;18.45;;;16.75;;
6093;SDS011;19964;42.060;24.700;2023-07-31T09:24:27;19.33;;;17.38;;
6093;SDS011;19964;42.060;24.700;2023-07-31T09:26:55;19.30;;;17.50;;
6093;SDS011;19964;42.060;24.700;2023-07-31T09:29:25;18.38;;;16.77;;
6093;SDS011;19964;42.060;24.700;2023-07-31T09:31:54;17.50;;;15.95;;
6093;SDS011;19964;42.060;24.700;2023-07-31T09:34:29;17.08;;;15.68;;
6093;SDS011;19964;42.060;24.700;2023-07-31T09:36:57;16.92;;;15.52;;
6093;SDS011;19964;42.060;24.700;2023-07-31T09:39:27;18.05;;;16.25;;
6093;SDS011;19964;42.060;24.700;2023-07-31T09:41:57;17.77;;;16.02;;
6093;SDS011;19964;42.060;24.700;2023-07-31T09:44:37;17.33;;;15.85;;
6093;SDS011;19964;42.060;24.700;2023-07-31T09:47:05;15.32;;;14.00;;
6093;SDS011;19964;42.060;24.700;2023-07-31T09:49:32;16.08;;;14.68;;
6093;SDS011;19964;42.060;24.700;2023-07-31T09:51:59;14.18;;;12.98;;
6093;SDS011;19964;42.060;24.700;2023-07-31T09:54:27;15.25;;;13.93;;
6093;SDS011;19964;42.060;24.700;2023-07-31T09:56:54;14.43;;;13.10;;
6093;SDS011;19964;42.060;24.700;2023-07-31T09:59:26;13.70;;;12.48;;
6093;SDS011;19964;42.060;24.700;2023-07-31T10:01:53;12.45;;;11.38;;
6093;SDS011;19964;42.060;24.700;2023-07-31T10:04:22;12.45;;;11.27;;
6093;SDS011;19964;42.060;24.700;2023-07-31T10:06:55;12.90;;;11.90;;
6093;SDS011;19964;42.060;24.700;2023-07-31T10:09:25;12.65;;;11.57;;
6093;SDS011;19964;42.060;24.700;2023-07-31T10:11:59;11.90;;;10.85;;
6093;SDS011;19964;42.060;24.700;2023-07-31T10:14:30;10.95;;;10.15;;
6093;SDS011;19964;42.060;24.700;2023-07-31T10:16:57;10.05;;;9.35;;
6093;SDS011;19964;42.060;24.700;2023-07-31T10:19:25;10.38;;;9.50;;
6093;SDS011;19964;42.060;24.700;2023-07-31T10:21:53;9.55;;;8.77;;
6093;SDS011;19964;42.060;24.700;2023-07-31T10:24:22;9.50;;;8.80;;
6093;SDS011;19964;42.060;24.700;2023-07-31T10:26:50;9.57;;;8.90;;
6093;SDS011;19964;42.060;24.700;2023-07-31T10:29:19;8.90;;;8.30;;
6093;SDS011;19964;42.060;24.700;2023-07-31T10:31:50;8.85;;;8.05;;
6093;SDS011;19964;42.060;24.700;2023-07-31T10:34:18;9.00;;;8.30;;
6093;SDS011;19964;42.060;24.700;2023-07-31T10:36:45;8.75;;;8.15;;
6093;SDS011;19964;42.060;24.700;2023-07-31T10:42:09;8.20;;;7.57;;
6093;SDS011;19964;42.060;24.700;2023-07-31T10:44:38;8.68;;;8.15;;
6093;SDS011;19964;42.060;24.700;2023-07-31T10:47:11;7.88;;;7.40;;
6093;SDS011;19964;42.060;24.700;2023-07-31T10:49:41;8.00;;;7.47;;
6093;SDS011;19964;42.060;24.700;2023-07-31T10:52:12;7.20;;;6.70;;
6093;SDS011;19964;42.060;24.700;2023-07-31T10:54:41;7.43;;;6.85;;
6093;SDS011;19964;42.060;24.700;2023-07-31T10:57:18;7.35;;;6.85;;
6093;SDS011;19964;42.060;24.700;2023-07-31T10:59:47;8.15;;;7.55;;
6093;SDS011;19964;42.060;24.700;2023-07-31T11:02:24;8.00;;;7.40;;
6093;SDS011;19964;42.060;24.700;2023-07-31T11:05:07;7.03;;;6.53;;
6093;SDS011;19964;42.060;24.700;2023-07-31T11:07:47;7.07;;;6.57;;
6093;SDS011;19964;42.060;24.700;2023-07-31T11:10:16;8.18;;;7.57;;
6093;SDS011;19964;42.060;24.700;2023-07-31T11:12:44;7.70;;;7.20;;
6093;SDS011;19964;42.060;24.700;2023-07-31T11:15:13;7.53;;;6.93;;
6093;SDS011;19964;42.060;24.700;2023-07-31T11:17:41;8.77;;;8.00;;
6093;SDS011;19964;42.060;24.700;2023-07-31T11:20:09;7.75;;;7.25;;
6093;SDS011;19964;42.060;24.700;2023-07-31T11:22:36;7.53;;;6.90;;
6093;SDS011;19964;42.060;24.700;2023-07-31T11:25:03;7.05;;;6.40;;
6093;SDS011;19964;42.060;24.700;2023-07-31T11:27:31;7.25;;;6.85;;
6093;SDS011;19964;42.060;24.700;2023-07-31T11:30:06;9.15;;;6.70;;
6093;SDS011;19964;42.060;24.700;2023-07-31T11:32:33;6.97;;;6.45;;
6093;SDS011;19964;42.060;24.700;2023-07-31T11:35:04;6.75;;;6.28;;
6093;SDS011;19964;42.060;24.700;2023-07-31T11:37:39;6.95;;;6.45;;
6093;SDS011;19964;42.060;24.700;2023-07-31T11:40:07;8.80;;;7.57;;
6093;SDS011;19964;42.060;24.700;2023-07-31T11:42:35;9.82;;;8.82;;
6093;SDS011;19964;42.060;24.700;2023-07-31T11:45:02;10.65;;;8.88;;
6093;SDS011;19964;42.060;24.700;2023-07-31T11:47:30;11.43;;;9.15;;
6093;SDS011;19964;42.060;24.700;2023-07-31T11:49:59;10.18;;;9.25;;
6093;SDS011;19964;42.060;24.700;2023-07-31T11:52:28;10.40;;;9.57;;
6093;SDS011;19964;42.060;24.700;2023-07-31T11:54:59;10.95;;;9.93;;
6093;SDS011;19964;42.060;24.700;2023-07-31T11:57:26;11.32;;;10.43;;
6093;SDS011;19964;42.060;24.700;2023-07-31T11:59:54;10.98;;;9.88;;
6093;SDS011;19964;42.060;24.700;2023-07-31T12:02:23;10.70;;;9.80;;
6093;SDS011;19964;42.060;24.700;2023-07-31T12:04:50;13.00;;;9.98;;
6093;SDS011;19964;42.060;24.700;2023-07-31T12:07:17;11.80;;;10.82;;
6093;SDS011;19964;42.060;24.700;2023-07-31T12:09:52;12.35;;;11.20;;
6093;SDS011;19964;42.060;24.700;2023-07-31T12:12:20;15.00;;;11.90;;
6093;SDS011;19964;42.060;24.700;2023-07-31T12:14:47;11.60;;;10.55;;
6093;SDS011;19964;42.060;24.700;2023-07-31T12:17:16;11.48;;;10.52;;
6093;SDS011;19964;42.060;24.700;2023-07-31T12:19:45;10.73;;;9.73;;
6093;SDS011;19964;42.060;24.700;2023-07-31T12:22:13;10.55;;;9.73;;
6093;SDS011;19964;42.060;24.700;2023-07-31T12:24:42;10.77;;;9.90;;
6093;SDS011;19964;42.060;24.700;2023-07-31T12:27:12;12.18;;;11.18;;
6093;SDS011;19964;42.060;24.700;2023-07-31T12:29:41;12.23;;;11.13;;
6093;SDS011;19964;42.060;24.700;2023-07-31T12:32:20;11.68;;;10.82;;
6093;SDS011;19964;42.060;24.700;2023-07-31T12:34:49;11.88;;;10.73;;
6093;SDS011;19964;42.060;24.700;2023-07-31T12:37:16;11.85;;;10.90;;
6093;SDS011;19964;42.060;24.700;2023-07-31T12:39:43;11.70;;;10.68;;
6093;SDS011;19964;42.060;24.700;2023-07-31T12:42:11;11.02;;;10.20;;
6093;SDS011;19964;42.060;24.700;2023-07-31T12:44:38;11.13;;;10.15;;
6093;SDS011;19964;42.060;24.700;2023-07-31T12:47:05;11.80;;;10.80;;
6093;SDS011;19964;42.060;24.700;2023-07-31T12:49:32;10.70;;;9.70;;
6093;SDS011;19964;42.060;24.700;2023-07-31T12:51:59;10.93;;;10.10;;
6093;SDS011;19964;42.060;24.700;2023-07-31T12:54:26;10.32;;;9.40;;
6093;SDS011;19964;42.060;24.700;2023-07-31T12:56:53;11.32;;;10.32;;
6093;SDS011;19964;42.060;24.700;2023-07-31T12:59:22;11.57;;;10.50;;
6093;SDS011;19964;42.060;24.700;2023-07-31T13:01:49;9.95;;;9.25;;
6093;SDS011;19964;42.060;24.700;2023-07-31T13:04:15;9.98;;;9.07;;
6093;SDS011;19964;42.060;24.700;2023-07-31T13:06:42;10.20;;;9.20;;
6093;SDS011;19964;42.060;24.700;2023-07-31T13:09:10;10.52;;;9.73;;
6093;SDS011;19964;42.060;24.700;2023-07-31T13:11:37;9.63;;;8.93;;
6093;SDS011;19964;42.060;24.700;2023-07-31T13:14:04;10.05;;;9.25;;
6093;SDS011;19964;42.060;24.700;2023-07-31T13:16:33;10.23;;;9.43;;
6093;SDS011;19964;42.060;24.700;2023-07-31T13:19:00;10.63;;;9.73;;
6093;SDS011;19964;42.060;24.700;2023-07-31T13:21:27;10.25;;;9.30;;
6093;SDS011;19964;42.060;24.700;2023-07-31T13:23:54;10.63;;;9.75;;
6093;SDS011;19964;42.060;24.700;2023-07-31T13:26:23;10.00;;;9.30;;
6093;SDS011;19964;42.060;24.700;2023-07-31T13:28:50;10.13;;;9.23;;
6093;SDS011;19964;42.060;24.700;2023-07-31T13:31:17;10.35;;;9.38;;
6093;SDS011;19964;42.060;24.700;2023-07-31T13:33:45;10.15;;;9.25;;
6093;SDS011;19964;42.060;24.700;2023-07-31T13:36:12;9.68;;;9.00;;
6093;SDS011;19964;42.060;24.700;2023-07-31T13:38:39;10.05;;;9.27;;
6093;SDS011;19964;42.060;24.700;2023-07-31T13:41:06;9.52;;;8.88;;
6093;SDS011;19964;42.060;24.700;2023-07-31T13:43:33;9.90;;;9.10;;
6093;SDS011;19964;42.060;24.700;2023-07-31T13:46:00;12.55;;;9.60;;
6093;SDS011;19964;42.060;24.700;2023-07-31T13:48:31;9.95;;;9.25;;
6093;SDS011;19964;42.060;24.700;2023-07-31T13:51:00;9.30;;;8.60;;
6093;SDS011;19964;42.060;24.700;2023-07-31T13:53:27;9.23;;;8.52;;
6093;SDS011;19964;42.060;24.700;2023-07-31T13:55:54;9.85;;;9.05;;
6093;SDS011;19964;42.060;24.700;2023-07-31T13:58:21;9.52;;;8.82;;
6093;SDS011;19964;42.060;24.700;2023-07-31T14:00:48;8.10;;;7.60;;
6093;SDS011;19964;42.060;24.700;2023-07-31T14:03:15;8.57;;;7.93;;
6093;SDS011;19964;42.060;24.700;2023-07-31T14:05:42;8.80;;;8.10;;
6093;SDS011;19964;42.060;24.700;2023-07-31T14:08:10;9.23;;;8.38;;
6093;SDS011;19964;42.060;24.700;2023-07-31T14:10:37;9.20;;;8.52;;
6093;SDS011;19964;42.060;24.700;2023-07-31T14:13:04;8.75;;;8.05;;
6093;SDS011;19964;42.060;24.700;2023-07-31T14:15:31;8.70;;;7.82;;
6093;SDS011;19964;42.060;24.700;2023-07-31T14:18:00;9.73;;;8.93;;
6093;SDS011;19964;42.060;24.700;2023-07-31T14:20:27;8.52;;;7.85;;
6093;SDS011;19964;42.060;24.700;2023-07-31T14:22:55;8.57;;;7.97;;
6093;SDS011;19964;42.060;24.700;2023-07-31T14:25:23;8.52;;;7.93;;
6093;SDS011;19964;42.060;24.700;2023-07-31T14:27:50;8.20;;;7.50;;
6093;SDS011;19964;42.060;24.700;2023-07-31T14:30:17;7.80;;;7.30;;
6093;SDS011;19964;42.060;24.700;2023-07-31T14:32:44;8.98;;;8.27;;
6093;SDS011;19964;42.060;24.700;2023-07-31T14:35:11;8.68;;;7.97;;
6093;SDS011;19964;42.060;24.700;2023-07-31T14:37:38;8.88;;;8.18;;
6093;SDS011;19964;42.060;24.700;2023-07-31T14:40:07;8.65;;;7.85;;
6093;SDS011;19964;42.060;24.700;2023-07-31T14:42:36;8.02;;;7.40;;
6093;SDS011;19964;42.060;24.700;2023-07-31T14:45:03;7.40;;;6.80;;